sensor_id;sensor_type;location;lat;lon;timestamp;temperature;humidity
73643;DHT22;61938;48.652;9.292;2023-12-07T00:01:39;1.90;99.90
73643;DHT22;61938;48.652;9.292;2023-12-07T00:04:04;1.90;99.90
73643;DHT22;61938;48.652;9.292;2023-12-07T00:06:30;1.90;99.90
73643;DHT22;61938;48.652;9.292;2023-12-07T00:08:55;1.90;99.90
73643;DHT22;61938;48.652;9.292;2023-12-07T00:11:24;1.90;99.90
73643;DHT22;61938;48.652;9.292;2023-12-07T00:13:50;1.90;99.90
73643;DHT22;61938;48.652;9.292;2023-12-07T00:16:15;1.80;99.90
73643;DHT22;61938;48.652;9.292;2023-12-07T00:18:41;1.90;99.90
73643;DHT22;61938;48.652;9.292;2023-12-07T00:21:08;1.90;99.90
73643;DHT22;61938;48.652;9.292;2023-12-07T00:23:34;2.10;99.90
73643;DHT22;61938;48.652;9.292;2023-12-07T00:25:59;1.90;99.90
73643;DHT22;61938;48.652;9.292;2023-12-07T00:28:25;1.90;99.90
73643;DHT22;61938;48.652;9.292;2023-12-07T00:30:50;1.80;99.90
73643;DHT22;61938;48.652;9.292;2023-12-07T00:33:16;1.80;99.90
73643;DHT22;61938;48.652;9.292;2023-12-07T00:35:42;1.80;99.90
73643;DHT22;61938;48.652;9.292;2023-12-07T00:38:08;1.90;99.90
73643;DHT22;61938;48.652;9.292;2023-12-07T00:40:34;1.90;99.90
73643;DHT22;61938;48.652;9.292;2023-12-07T00:43:02;2.00;99.90
73643;DHT22;61938;48.652;9.292;2023-12-07T00:45:28;1.80;99.90
73643;DHT22;61938;48.652;9.292;2023-12-07T00:47:54;1.80;99.90
73643;DHT22;61938;48.652;9.292;2023-12-07T00:50:19;1.90;99.90
73643;DHT22;61938;48.652;9.292;2023-12-07T00:52:45;1.80;99.90
73643;DHT22;61938;48.652;9.292;2023-12-07T00:55:10;1.90;99.90
73643;DHT22;61938;48.652;9.292;2023-12-07T00:57:36;1.80;99.90
73643;DHT22;61938;48.652;9.292;2023-12-07T01:00:01;1.80;99.90
73643;DHT22;61938;48.652;9.292;2023-12-07T01:02:27;1.40;99.90
73643;DHT22;61938;48.652;9.292;2023-12-07T01:04:53;1.80;99.90
73643;DHT22;61938;48.652;9.292;2023-12-07T01:07:18;1.80;99.90
73643;DHT22;61938;48.652;9.292;2023-12-07T01:09:44;1.90;99.90
73643;DHT22;61938;48.652;9.292;2023-12-07T01:12:09;1.90;99.90
73643;DHT22;61938;48.652;9.292;2023-12-07T01:14:35;1.90;99.90
73643;DHT22;61938;48.652;9.292;2023-12-07T01:17:00;1.90;99.90
73643;DHT22;61938;48.652;9.292;2023-12-07T01:19:26;1.80;99.90
73643;DHT22;61938;48.652;9.292;2023-12-07T01:21:52;1.80;99.90
73643;DHT22;61938;48.652;9.292;2023-12-07T01:24:18;1.80;99.90
73643;DHT22;61938;48.652;9.292;2023-12-07T01:26:43;1.90;99.90
73643;DHT22;61938;48.652;9.292;2023-12-07T01:29:09;1.80;99.90
73643;DHT22;61938;48.652;9.292;2023-12-07T01:31:34;1.80;99.90
73643;DHT22;61938;48.652;9.292;2023-12-07T01:34:00;1.70;99.90
73643;DHT22;61938;48.652;9.292;2023-12-07T01:36:25;1.70;99.90
73643;DHT22;61938;48.652;9.292;2023-12-07T01:38:51;1.80;99.90
73643;DHT22;61938;48.652;9.292;2023-12-07T01:41:16;1.80;99.90
73643;DHT22;61938;48.652;9.292;2023-12-07T01:43:46;1.80;99.90
73643;DHT22;61938;48.652;9.292;2023-12-07T01:46:12;1.80;99.90
73643;DHT22;61938;48.652;9.292;2023-12-07T01:48:38;1.70;99.90
73643;DHT22;61938;48.652;9.292;2023-12-07T01:51:04;1.70;99.90
73643;DHT22;61938;48.652;9.292;2023-12-07T01:53:30;1.90;99.90
73643;DHT22;61938;48.652;9.292;2023-12-07T01:55:56;1.60;99.90
73643;DHT22;61938;48.652;9.292;2023-12-07T01:58:22;1.60;99.90
73643;DHT22;61938;48.652;9.292;2023-12-07T02:00:48;1.50;99.90
73643;DHT22;61938;48.652;9.292;2023-12-07T02:03:15;1.50;99.90
73643;DHT22;61938;48.652;9.292;2023-12-07T02:05:43;1.40;99.90
73643;DHT22;61938;48.652;9.292;2023-12-07T02:08:11;1.30;99.90
73643;DHT22;61938;48.652;9.292;2023-12-07T02:10:36;1.30;99.90
73643;DHT22;61938;48.652;9.292;2023-12-07T02:13:02;1.30;99.90
73643;DHT22;61938;48.652;9.292;2023-12-07T02:15:28;1.30;99.90
73643;DHT22;61938;48.652;9.292;2023-12-07T02:20:46;1.30;99.90
73643;DHT22;61938;48.652;9.292;2023-12-07T02:23:15;1.20;99.90
73643;DHT22;61938;48.652;9.292;2023-12-07T02:25:51;1.20;99.90
73643;DHT22;61938;48.652;9.292;2023-12-07T02:28:17;1.40;99.90
73643;DHT22;61938;48.652;9.292;2023-12-07T02:30:43;1.20;99.90
73643;DHT22;61938;48.652;9.292;2023-12-07T02:33:08;1.40;99.90
73643;DHT22;61938;48.652;9.292;2023-12-07T02:35:36;1.20;99.90
73643;DHT22;61938;48.652;9.292;2023-12-07T02:38:02;1.20;99.90
73643;DHT22;61938;48.652;9.292;2023-12-07T02:40:28;1.20;99.90
73643;DHT22;61938;48.652;9.292;2023-12-07T02:42:55;1.30;99.90
73643;DHT22;61938;48.652;9.292;2023-12-07T02:45:21;1.20;99.90
73643;DHT22;61938;48.652;9.292;2023-12-07T02:47:47;1.30;99.90
73643;DHT22;61938;48.652;9.292;2023-12-07T02:50:13;1.30;99.90
73643;DHT22;61938;48.652;9.292;2023-12-07T02:52:39;1.10;99.90
73643;DHT22;61938;48.652;9.292;2023-12-07T02:55:05;1.10;99.90
73643;DHT22;61938;48.652;9.292;2023-12-07T02:57:31;1.10;99.90
73643;DHT22;61938;48.652;9.292;2023-12-07T02:59:59;1.10;99.90
73643;DHT22;61938;48.652;9.292;2023-12-07T03:02:24;1.10;99.90
73643;DHT22;61938;48.652;9.292;2023-12-07T03:04:50;1.10;99.90
73643;DHT22;61938;48.652;9.292;2023-12-07T03:07:16;1.10;99.90
73643;DHT22;61938;48.652;9.292;2023-12-07T03:09:42;1.10;99.90
73643;DHT22;61938;48.652;9.292;2023-12-07T03:12:07;1.00;99.90
73643;DHT22;61938;48.652;9.292;2023-12-07T03:14:33;1.00;99.90
73643;DHT22;61938;48.652;9.292;2023-12-07T03:17:00;0.90;99.90
73643;DHT22;61938;48.652;9.292;2023-12-07T03:19:25;0.90;99.90
73643;DHT22;61938;48.652;9.292;2023-12-07T03:21:51;0.90;99.90
73643;DHT22;61938;48.652;9.292;2023-12-07T03:24:16;0.80;99.90
73643;DHT22;61938;48.652;9.292;2023-12-07T03:26:42;0.90;99.90
73643;DHT22;61938;48.652;9.292;2023-12-07T03:29:07;0.90;99.90
73643;DHT22;61938;48.652;9.292;2023-12-07T03:31:33;0.90;99.90
73643;DHT22;61938;48.652;9.292;2023-12-07T03:33:59;0.80;99.90
73643;DHT22;61938;48.652;9.292;2023-12-07T03:36:26;0.80;99.90
73643;DHT22;61938;48.652;9.292;2023-12-07T03:38:52;0.80;99.90
73643;DHT22;61938;48.652;9.292;2023-12-07T03:41:17;0.70;99.90
73643;DHT22;61938;48.652;9.292;2023-12-07T03:43:43;0.60;99.90
73643;DHT22;61938;48.652;9.292;2023-12-07T03:46:09;0.70;99.90
73643;DHT22;61938;48.652;9.292;2023-12-07T03:48:35;0.80;99.90
73643;DHT22;61938;48.652;9.292;2023-12-07T03:51:01;0.70;99.90
73643;DHT22;61938;48.652;9.292;2023-12-07T03:53:27;0.70;99.90
73643;DHT22;61938;48.652;9.292;2023-12-07T03:55:53;0.70;99.90
73643;DHT22;61938;48.652;9.292;2023-12-07T03:58:18;0.60;99.90
73643;DHT22;61938;48.652;9.292;2023-12-07T04:00:45;0.60;99.90
73643;DHT22;61938;48.652;9.292;2023-12-07T04:03:10;0.40;99.90
73643;DHT22;61938;48.652;9.292;2023-12-07T04:05:36;0.40;99.90
73643;DHT22;61938;48.652;9.292;2023-12-07T04:08:01;0.50;99.90
73643;DHT22;61938;48.652;9.292;2023-12-07T04:10:27;0.50;99.90
73643;DHT22;61938;48.652;9.292;2023-12-07T04:12:53;0.60;99.90
73643;DHT22;61938;48.652;9.292;2023-12-07T04:15:19;0.60;99.90
73643;DHT22;61938;48.652;9.292;2023-12-07T04:17:45;0.60;99.90
73643;DHT22;61938;48.652;9.292;2023-12-07T04:20:11;0.50;99.90
73643;DHT22;61938;48.652;9.292;2023-12-07T04:22:36;0.60;99.90
73643;DHT22;61938;48.652;9.292;2023-12-07T04:25:02;0.60;99.90
73643;DHT22;61938;48.652;9.292;2023-12-07T04:27:27;0.50;99.90
73643;DHT22;61938;48.652;9.292;2023-12-07T04:29:53;0.50;99.90
73643;DHT22;61938;48.652;9.292;2023-12-07T04:32:19;0.40;99.90
73643;DHT22;61938;48.652;9.292;2023-12-07T04:34:44;0.50;99.90
73643;DHT22;61938;48.652;9.292;2023-12-07T04:37:10;0.50;99.90
73643;DHT22;61938;48.652;9.292;2023-12-07T04:39:36;0.50;99.90
73643;DHT22;61938;48.652;9.292;2023-12-07T04:42:01;0.40;99.90
73643;DHT22;61938;48.652;9.292;2023-12-07T04:44:27;0.40;99.90
73643;DHT22;61938;48.652;9.292;2023-12-07T04:46:52;0.40;99.90
73643;DHT22;61938;48.652;9.292;2023-12-07T04:49:18;0.30;99.90
73643;DHT22;61938;48.652;9.292;2023-12-07T04:51:43;0.40;99.90
73643;DHT22;61938;48.652;9.292;2023-12-07T04:54:12;0.40;99.90
73643;DHT22;61938;48.652;9.292;2023-12-07T04:56:40;0.40;99.90
73643;DHT22;61938;48.652;9.292;2023-12-07T04:59:06;0.50;99.90
73643;DHT22;61938;48.652;9.292;2023-12-07T05:01:31;0.40;99.90
73643;DHT22;61938;48.652;9.292;2023-12-07T05:03:57;0.40;99.90
73643;DHT22;61938;48.652;9.292;2023-12-07T05:06:22;0.40;99.90
73643;DHT22;61938;48.652;9.292;2023-12-07T05:08:48;0.40;99.90
73643;DHT22;61938;48.652;9.292;2023-12-07T05:11:13;0.40;99.90
73643;DHT22;61938;48.652;9.292;2023-12-07T05:13:39;0.40;99.90
73643;DHT22;61938;48.652;9.292;2023-12-07T05:16:05;0.40;99.90
73643;DHT22;61938;48.652;9.292;2023-12-07T05:18:30;0.30;99.90
73643;DHT22;61938;48.652;9.292;2023-12-07T05:20:56;0.40;99.90
73643;DHT22;61938;48.652;9.292;2023-12-07T05:23:21;0.30;99.90
73643;DHT22;61938;48.652;9.292;2023-12-07T05:25:47;0.30;99.90
73643;DHT22;61938;48.652;9.292;2023-12-07T05:28:12;0.30;99.90
73643;DHT22;61938;48.652;9.292;2023-12-07T05:30:38;0.30;99.90
73643;DHT22;61938;48.652;9.292;2023-12-07T05:33:04;0.30;99.90
73643;DHT22;61938;48.652;9.292;2023-12-07T05:35:29;0.30;99.90
73643;DHT22;61938;48.652;9.292;2023-12-07T05:37:55;0.50;99.90
73643;DHT22;61938;48.652;9.292;2023-12-07T05:40:20;0.40;99.90
73643;DHT22;61938;48.652;9.292;2023-12-07T05:42:49;0.30;99.90
73643;DHT22;61938;48.652;9.292;2023-12-07T05:45:15;0.40;99.90
73643;DHT22;61938;48.652;9.292;2023-12-07T05:47:41;0.40;99.90
73643;DHT22;61938;48.652;9.292;2023-12-07T05:50:07;0.50;99.90
73643;DHT22;61938;48.652;9.292;2023-12-07T05:52:33;0.30;99.90
73643;DHT22;61938;48.652;9.292;2023-12-07T05:54:58;0.30;99.90
73643;DHT22;61938;48.652;9.292;2023-12-07T05:57:24;0.30;99.90
73643;DHT22;61938;48.652;9.292;2023-12-07T05:59:50;0.30;99.90
73643;DHT22;61938;48.652;9.292;2023-12-07T06:02:15;0.30;99.90
73643;DHT22;61938;48.652;9.292;2023-12-07T06:04:41;0.20;99.90
73643;DHT22;61938;48.652;9.292;2023-12-07T06:07:06;0.20;99.90
73643;DHT22;61938;48.652;9.292;2023-12-07T06:09:32;0.20;99.90
73643;DHT22;61938;48.652;9.292;2023-12-07T06:11:58;0.10;99.90
73643;DHT22;61938;48.652;9.292;2023-12-07T06:14:23;0.10;99.90
73643;DHT22;61938;48.652;9.292;2023-12-07T06:16:49;0.20;99.90
73643;DHT22;61938;48.652;9.292;2023-12-07T06:19:15;0.10;99.90
73643;DHT22;61938;48.652;9.292;2023-12-07T06:21:40;0.10;99.90
73643;DHT22;61938;48.652;9.292;2023-12-07T06:24:06;0.10;99.90
73643;DHT22;61938;48.652;9.292;2023-12-07T06:26:32;0.00;99.90
73643;DHT22;61938;48.652;9.292;2023-12-07T06:28:58;0.00;99.90
73643;DHT22;61938;48.652;9.292;2023-12-07T06:31:23;0.00;99.90
73643;DHT22;61938;48.652;9.292;2023-12-07T06:33:49;0.00;99.90
73643;DHT22;61938;48.652;9.292;2023-12-07T06:36:22;0.00;99.90
73643;DHT22;61938;48.652;9.292;2023-12-07T06:38:53;0.00;99.90
73643;DHT22;61938;48.652;9.292;2023-12-07T06:41:20;0.00;99.90
73643;DHT22;61938;48.652;9.292;2023-12-07T06:43:46;-0.10;99.90
73643;DHT22;61938;48.652;9.292;2023-12-07T06:46:12;-0.10;99.90
73643;DHT22;61938;48.652;9.292;2023-12-07T06:48:38;-0.10;99.90
73643;DHT22;61938;48.652;9.292;2023-12-07T06:51:04;-0.20;99.90
73643;DHT22;61938;48.652;9.292;2023-12-07T06:53:29;-0.20;99.90
73643;DHT22;61938;48.652;9.292;2023-12-07T06:55:57;-0.20;99.90
73643;DHT22;61938;48.652;9.292;2023-12-07T06:58:22;-0.20;99.90
73643;DHT22;61938;48.652;9.292;2023-12-07T07:00:48;-0.20;99.90
73643;DHT22;61938;48.652;9.292;2023-12-07T07:03:14;-0.20;99.90
73643;DHT22;61938;48.652;9.292;2023-12-07T07:05:40;-0.20;99.90
73643;DHT22;61938;48.652;9.292;2023-12-07T07:08:05;-0.10;99.90
73643;DHT22;61938;48.652;9.292;2023-12-07T07:10:33;-0.20;99.90
73643;DHT22;61938;48.652;9.292;2023-12-07T07:13:02;-0.20;99.90
73643;DHT22;61938;48.652;9.292;2023-12-07T07:15:32;-0.10;99.90
73643;DHT22;61938;48.652;9.292;2023-12-07T07:17:58;-0.10;99.90
73643;DHT22;61938;48.652;9.292;2023-12-07T07:20:24;-0.30;99.90
73643;DHT22;61938;48.652;9.292;2023-12-07T07:22:49;-0.30;99.90
73643;DHT22;61938;48.652;9.292;2023-12-07T07:25:15;-0.40;99.90
73643;DHT22;61938;48.652;9.292;2023-12-07T07:27:42;-0.30;99.90
73643;DHT22;61938;48.652;9.292;2023-12-07T07:30:07;-0.40;99.90
73643;DHT22;61938;48.652;9.292;2023-12-07T07:32:33;-0.50;99.90
73643;DHT22;61938;48.652;9.292;2023-12-07T07:34:59;-0.50;99.90
73643;DHT22;61938;48.652;9.292;2023-12-07T07:37:24;-0.50;99.90
73643;DHT22;61938;48.652;9.292;2023-12-07T07:39:50;-0.50;99.90
73643;DHT22;61938;48.652;9.292;2023-12-07T07:42:15;-0.50;99.90
73643;DHT22;61938;48.652;9.292;2023-12-07T07:44:42;-0.50;99.90
73643;DHT22;61938;48.652;9.292;2023-12-07T07:47:07;-0.60;99.90
73643;DHT22;61938;48.652;9.292;2023-12-07T07:49:33;-0.60;99.90
73643;DHT22;61938;48.652;9.292;2023-12-07T07:51:59;-0.50;99.90
73643;DHT22;61938;48.652;9.292;2023-12-07T07:54:24;-0.50;99.90
73643;DHT22;61938;48.652;9.292;2023-12-07T07:56:50;-0.60;99.90
73643;DHT22;61938;48.652;9.292;2023-12-07T07:59:16;-0.50;99.90
73643;DHT22;61938;48.652;9.292;2023-12-07T08:01:42;-0.50;99.90
73643;DHT22;61938;48.652;9.292;2023-12-07T08:04:07;-0.50;99.90
73643;DHT22;61938;48.652;9.292;2023-12-07T08:06:33;-0.50;99.90
73643;DHT22;61938;48.652;9.292;2023-12-07T08:08:59;-0.40;99.90
73643;DHT22;61938;48.652;9.292;2023-12-07T08:11:25;-0.40;99.90
73643;DHT22;61938;48.652;9.292;2023-12-07T08:13:50;-0.30;99.90
73643;DHT22;61938;48.652;9.292;2023-12-07T08:16:16;-0.20;99.90
73643;DHT22;61938;48.652;9.292;2023-12-07T08:18:42;-0.30;99.90
73643;DHT22;61938;48.652;9.292;2023-12-07T08:21:07;-0.20;99.90
73643;DHT22;61938;48.652;9.292;2023-12-07T08:23:34;-0.20;99.90
73643;DHT22;61938;48.652;9.292;2023-12-07T08:26:00;-0.20;99.90
73643;DHT22;61938;48.652;9.292;2023-12-07T08:28:27;-0.20;99.90
73643;DHT22;61938;48.652;9.292;2023-12-07T08:30:52;-0.10;99.90
73643;DHT22;61938;48.652;9.292;2023-12-07T08:33:17;-0.10;99.90
73643;DHT22;61938;48.652;9.292;2023-12-07T08:35:43;0.00;99.90
73643;DHT22;61938;48.652;9.292;2023-12-07T08:38:08;0.00;99.90
73643;DHT22;61938;48.652;9.292;2023-12-07T08:40:34;0.10;99.90
73643;DHT22;61938;48.652;9.292;2023-12-07T08:42:59;0.10;99.90
73643;DHT22;61938;48.652;9.292;2023-12-07T08:45:25;0.10;99.90
73643;DHT22;61938;48.652;9.292;2023-12-07T08:47:50;0.10;99.90
73643;DHT22;61938;48.652;9.292;2023-12-07T08:50:16;0.10;99.90
73643;DHT22;61938;48.652;9.292;2023-12-07T08:52:41;0.10;99.90
73643;DHT22;61938;48.652;9.292;2023-12-07T08:55:07;0.10;99.90
73643;DHT22;61938;48.652;9.292;2023-12-07T08:57:33;0.20;99.90
73643;DHT22;61938;48.652;9.292;2023-12-07T08:59:58;0.20;99.90
73643;DHT22;61938;48.652;9.292;2023-12-07T09:02:24;0.20;99.90
73643;DHT22;61938;48.652;9.292;2023-12-07T09:04:50;0.20;99.90
73643;DHT22;61938;48.652;9.292;2023-12-07T09:07:17;0.30;99.90
73643;DHT22;61938;48.652;9.292;2023-12-07T09:09:42;0.30;99.90
73643;DHT22;61938;48.652;9.292;2023-12-07T09:12:13;0.30;99.90
73643;DHT22;61938;48.652;9.292;2023-12-07T09:14:40;0.30;99.90
73643;DHT22;61938;48.652;9.292;2023-12-07T09:17:05;0.30;99.90
73643;DHT22;61938;48.652;9.292;2023-12-07T09:19:31;0.30;99.90
73643;DHT22;61938;48.652;9.292;2023-12-07T09:21:56;0.40;99.90
73643;DHT22;61938;48.652;9.292;2023-12-07T09:24:22;0.50;99.90
73643;DHT22;61938;48.652;9.292;2023-12-07T09:26:47;0.30;99.90
73643;DHT22;61938;48.652;9.292;2023-12-07T09:29:14;0.40;99.90
73643;DHT22;61938;48.652;9.292;2023-12-07T09:31:39;0.50;99.90
73643;DHT22;61938;48.652;9.292;2023-12-07T09:34:05;0.50;99.90
73643;DHT22;61938;48.652;9.292;2023-12-07T09:36:30;0.50;99.90
73643;DHT22;61938;48.652;9.292;2023-12-07T09:38:56;0.50;99.90
73643;DHT22;61938;48.652;9.292;2023-12-07T09:41:22;0.60;99.90
73643;DHT22;61938;48.652;9.292;2023-12-07T09:43:48;0.50;99.90
73643;DHT22;61938;48.652;9.292;2023-12-07T09:46:15;0.60;99.90
73643;DHT22;61938;48.652;9.292;2023-12-07T09:48:43;0.50;99.90
73643;DHT22;61938;48.652;9.292;2023-12-07T09:51:10;0.60;99.90
73643;DHT22;61938;48.652;9.292;2023-12-07T09:53:38;0.50;99.90
73643;DHT22;61938;48.652;9.292;2023-12-07T09:56:05;0.60;99.90
73643;DHT22;61938;48.652;9.292;2023-12-07T09:58:30;0.70;99.90
73643;DHT22;61938;48.652;9.292;2023-12-07T10:00:56;0.60;99.90
73643;DHT22;61938;48.652;9.292;2023-12-07T10:03:22;0.60;99.90
73643;DHT22;61938;48.652;9.292;2023-12-07T10:05:56;0.70;99.90
73643;DHT22;61938;48.652;9.292;2023-12-07T10:08:35;0.70;99.90
73643;DHT22;61938;48.652;9.292;2023-12-07T10:11:08;0.70;99.90
73643;DHT22;61938;48.652;9.292;2023-12-07T10:13:35;0.80;99.90
73643;DHT22;61938;48.652;9.292;2023-12-07T10:16:12;0.70;99.90
73643;DHT22;61938;48.652;9.292;2023-12-07T10:18:39;0.80;99.90
73643;DHT22;61938;48.652;9.292;2023-12-07T10:21:09;0.80;99.90
73643;DHT22;61938;48.652;9.292;2023-12-07T10:23:36;0.90;99.90
73643;DHT22;61938;48.652;9.292;2023-12-07T10:26:02;0.80;99.90
73643;DHT22;61938;48.652;9.292;2023-12-07T10:28:30;0.90;99.90
73643;DHT22;61938;48.652;9.292;2023-12-07T10:30:57;1.00;99.90
73643;DHT22;61938;48.652;9.292;2023-12-07T10:33:22;0.90;99.90
73643;DHT22;61938;48.652;9.292;2023-12-07T10:35:48;1.00;99.90
73643;DHT22;61938;48.652;9.292;2023-12-07T10:38:16;1.00;99.90
73643;DHT22;61938;48.652;9.292;2023-12-07T10:40:43;1.00;99.90
73643;DHT22;61938;48.652;9.292;2023-12-07T10:43:09;1.10;99.90
73643;DHT22;61938;48.652;9.292;2023-12-07T10:45:35;1.30;99.90
73643;DHT22;61938;48.652;9.292;2023-12-07T10:48:10;1.20;99.90
73643;DHT22;61938;48.652;9.292;2023-12-07T10:50:44;1.20;99.90
73643;DHT22;61938;48.652;9.292;2023-12-07T10:53:19;1.30;99.90
73643;DHT22;61938;48.652;9.292;2023-12-07T10:55:59;1.30;99.90
73643;DHT22;61938;48.652;9.292;2023-12-07T10:58:25;1.40;99.90
73643;DHT22;61938;48.652;9.292;2023-12-07T11:00:55;1.40;99.90
73643;DHT22;61938;48.652;9.292;2023-12-07T11:03:22;1.40;99.90
73643;DHT22;61938;48.652;9.292;2023-12-07T11:05:48;1.50;99.90
73643;DHT22;61938;48.652;9.292;2023-12-07T11:09:00;1.50;99.90
73643;DHT22;61938;48.652;9.292;2023-12-07T11:11:24;1.60;99.90
73643;DHT22;61938;48.652;9.292;2023-12-07T11:14:05;1.70;99.90
73643;DHT22;61938;48.652;9.292;2023-12-07T11:16:41;1.60;99.90
73643;DHT22;61938;48.652;9.292;2023-12-07T11:21:58;1.80;99.90
73643;DHT22;61938;48.652;9.292;2023-12-07T11:24:24;1.90;99.90
73643;DHT22;61938;48.652;9.292;2023-12-07T11:26:56;1.90;99.90
73643;DHT22;61938;48.652;9.292;2023-12-07T11:29:24;2.00;99.90
73643;DHT22;61938;48.652;9.292;2023-12-07T11:31:51;2.00;99.90
73643;DHT22;61938;48.652;9.292;2023-12-07T11:34:42;2.20;99.90
73643;DHT22;61938;48.652;9.292;2023-12-07T11:37:10;2.20;99.90
73643;DHT22;61938;48.652;9.292;2023-12-07T11:39:36;2.20;99.90
73643;DHT22;61938;48.652;9.292;2023-12-07T11:42:15;2.30;99.90
73643;DHT22;61938;48.652;9.292;2023-12-07T11:44:42;2.40;99.90
73643;DHT22;61938;48.652;9.292;2023-12-07T11:47:10;2.50;99.90
73643;DHT22;61938;48.652;9.292;2023-12-07T11:49:42;2.50;99.90
73643;DHT22;61938;48.652;9.292;2023-12-07T11:52:19;2.50;99.90
73643;DHT22;61938;48.652;9.292;2023-12-07T11:54:49;2.60;99.90
73643;DHT22;61938;48.652;9.292;2023-12-07T11:57:15;2.60;99.90
73643;DHT22;61938;48.652;9.292;2023-12-07T11:59:42;2.70;99.90
73643;DHT22;61938;48.652;9.292;2023-12-07T12:02:10;2.70;99.90
73643;DHT22;61938;48.652;9.292;2023-12-07T12:04:36;2.80;99.90
73643;DHT22;61938;48.652;9.292;2023-12-07T12:07:03;2.70;99.90
73643;DHT22;61938;48.652;9.292;2023-12-07T12:09:29;3.00;99.90
73643;DHT22;61938;48.652;9.292;2023-12-07T12:11:56;3.20;99.90
73643;DHT22;61938;48.652;9.292;2023-12-07T12:14:26;3.20;99.90
73643;DHT22;61938;48.652;9.292;2023-12-07T12:16:52;3.20;99.90
73643;DHT22;61938;48.652;9.292;2023-12-07T12:19:18;3.10;99.90
73643;DHT22;61938;48.652;9.292;2023-12-07T12:21:44;3.40;99.90
73643;DHT22;61938;48.652;9.292;2023-12-07T12:24:12;3.40;99.90
73643;DHT22;61938;48.652;9.292;2023-12-07T12:26:42;3.40;99.90
73643;DHT22;61938;48.652;9.292;2023-12-07T12:29:08;3.40;99.90
73643;DHT22;61938;48.652;9.292;2023-12-07T12:31:35;3.40;99.90
73643;DHT22;61938;48.652;9.292;2023-12-07T12:34:01;3.50;99.90
73643;DHT22;61938;48.652;9.292;2023-12-07T12:36:27;3.50;99.90
73643;DHT22;61938;48.652;9.292;2023-12-07T12:38:53;3.60;99.90
73643;DHT22;61938;48.652;9.292;2023-12-07T12:41:20;3.50;99.90
73643;DHT22;61938;48.652;9.292;2023-12-07T12:43:46;3.70;99.90
73643;DHT22;61938;48.652;9.292;2023-12-07T12:46:15;3.70;99.90
73643;DHT22;61938;48.652;9.292;2023-12-07T12:49:01;3.90;99.90
73643;DHT22;61938;48.652;9.292;2023-12-07T12:51:27;3.80;99.90
73643;DHT22;61938;48.652;9.292;2023-12-07T12:53:54;3.80;99.90
73643;DHT22;61938;48.652;9.292;2023-12-07T12:56:21;3.80;99.90
73643;DHT22;61938;48.652;9.292;2023-12-07T12:58:50;3.80;99.90
73643;DHT22;61938;48.652;9.292;2023-12-07T13:01:17;3.90;99.90
73643;DHT22;61938;48.652;9.292;2023-12-07T13:03:46;3.80;99.90
73643;DHT22;61938;48.652;9.292;2023-12-07T13:06:15;3.80;99.90
73643;DHT22;61938;48.652;9.292;2023-12-07T13:08:43;3.80;99.90
73643;DHT22;61938;48.652;9.292;2023-12-07T13:11:09;3.80;99.90
73643;DHT22;61938;48.652;9.292;2023-12-07T13:13:35;3.80;99.90
73643;DHT22;61938;48.652;9.292;2023-12-07T13:16:00;3.90;99.90
73643;DHT22;61938;48.652;9.292;2023-12-07T13:18:26;3.90;99.90
73643;DHT22;61938;48.652;9.292;2023-12-07T13:20:51;3.90;99.90
73643;DHT22;61938;48.652;9.292;2023-12-07T13:23:17;3.90;99.90
73643;DHT22;61938;48.652;9.292;2023-12-07T13:25:43;3.90;99.90
73643;DHT22;61938;48.652;9.292;2023-12-07T13:28:11;3.90;99.90
73643;DHT22;61938;48.652;9.292;2023-12-07T13:30:36;3.90;99.90
73643;DHT22;61938;48.652;9.292;2023-12-07T13:33:02;3.40;99.90
73643;DHT22;61938;48.652;9.292;2023-12-07T13:35:29;3.70;99.90
73643;DHT22;61938;48.652;9.292;2023-12-07T13:37:55;3.90;99.90
73643;DHT22;61938;48.652;9.292;2023-12-07T13:40:21;3.90;99.90
73643;DHT22;61938;48.652;9.292;2023-12-07T13:42:46;3.90;99.90
73643;DHT22;61938;48.652;9.292;2023-12-07T13:45:12;3.90;99.90
73643;DHT22;61938;48.652;9.292;2023-12-07T13:47:38;3.80;99.90
73643;DHT22;61938;48.652;9.292;2023-12-07T13:50:04;3.80;99.90
73643;DHT22;61938;48.652;9.292;2023-12-07T13:52:31;3.80;99.90
73643;DHT22;61938;48.652;9.292;2023-12-07T13:54:57;3.80;99.90
73643;DHT22;61938;48.652;9.292;2023-12-07T13:57:24;3.80;99.90
73643;DHT22;61938;48.652;9.292;2023-12-07T13:59:50;3.80;99.90
73643;DHT22;61938;48.652;9.292;2023-12-07T14:02:16;3.80;99.90
73643;DHT22;61938;48.652;9.292;2023-12-07T14:04:41;3.80;99.90
73643;DHT22;61938;48.652;9.292;2023-12-07T14:07:11;3.70;99.90
73643;DHT22;61938;48.652;9.292;2023-12-07T14:09:42;3.70;99.90
73643;DHT22;61938;48.652;9.292;2023-12-07T14:12:08;3.70;99.90
73643;DHT22;61938;48.652;9.292;2023-12-07T14:14:34;3.80;99.90
73643;DHT22;61938;48.652;9.292;2023-12-07T14:17:00;3.70;99.90
73643;DHT22;61938;48.652;9.292;2023-12-07T14:19:25;3.80;99.90
73643;DHT22;61938;48.652;9.292;2023-12-07T14:21:51;3.70;99.90
73643;DHT22;61938;48.652;9.292;2023-12-07T14:24:17;3.70;99.90
73643;DHT22;61938;48.652;9.292;2023-12-07T14:26:43;3.70;99.90
73643;DHT22;61938;48.652;9.292;2023-12-07T14:29:09;3.70;99.90
73643;DHT22;61938;48.652;9.292;2023-12-07T14:31:40;3.70;99.90
73643;DHT22;61938;48.652;9.292;2023-12-07T14:34:06;3.70;99.90
73643;DHT22;61938;48.652;9.292;2023-12-07T14:36:31;3.70;99.90
73643;DHT22;61938;48.652;9.292;2023-12-07T14:38:57;3.60;99.90
73643;DHT22;61938;48.652;9.292;2023-12-07T14:41:23;3.60;99.90
73643;DHT22;61938;48.652;9.292;2023-12-07T14:43:48;3.60;99.90
73643;DHT22;61938;48.652;9.292;2023-12-07T14:46:14;3.60;99.90
73643;DHT22;61938;48.652;9.292;2023-12-07T14:48:40;3.60;99.90
73643;DHT22;61938;48.652;9.292;2023-12-07T14:51:05;3.50;99.90
73643;DHT22;61938;48.652;9.292;2023-12-07T14:53:32;3.50;99.90
73643;DHT22;61938;48.652;9.292;2023-12-07T14:55:59;3.60;99.90
73643;DHT22;61938;48.652;9.292;2023-12-07T14:58:24;3.40;99.90
73643;DHT22;61938;48.652;9.292;2023-12-07T15:00:50;3.40;99.90
73643;DHT22;61938;48.652;9.292;2023-12-07T15:03:16;3.40;99.90
73643;DHT22;61938;48.652;9.292;2023-12-07T15:05:44;3.40;99.90
73643;DHT22;61938;48.652;9.292;2023-12-07T15:08:09;3.40;99.90
73643;DHT22;61938;48.652;9.292;2023-12-07T15:10:36;3.30;99.90
73643;DHT22;61938;48.652;9.292;2023-12-07T15:13:02;3.30;99.90
73643;DHT22;61938;48.652;9.292;2023-12-07T15:15:28;3.30;99.90
73643;DHT22;61938;48.652;9.292;2023-12-07T15:17:54;3.20;99.90
73643;DHT22;61938;48.652;9.292;2023-12-07T15:20:19;3.20;99.90
73643;DHT22;61938;48.652;9.292;2023-12-07T15:22:45;3.20;99.90
73643;DHT22;61938;48.652;9.292;2023-12-07T15:25:11;3.10;99.90
73643;DHT22;61938;48.652;9.292;2023-12-07T15:27:37;3.10;99.90
73643;DHT22;61938;48.652;9.292;2023-12-07T15:30:03;3.10;99.90
73643;DHT22;61938;48.652;9.292;2023-12-07T15:32:32;3.00;99.90
73643;DHT22;61938;48.652;9.292;2023-12-07T15:34:57;3.00;99.90
73643;DHT22;61938;48.652;9.292;2023-12-07T15:37:23;2.90;99.90
73643;DHT22;61938;48.652;9.292;2023-12-07T15:39:50;3.00;99.90
73643;DHT22;61938;48.652;9.292;2023-12-07T15:42:16;2.80;99.90
73643;DHT22;61938;48.652;9.292;2023-12-07T15:44:42;2.80;99.90
73643;DHT22;61938;48.652;9.292;2023-12-07T15:47:07;2.90;99.90